Time;durP1;ratioP1;P1;durP2;ratioP2;P2;SDS_P1;SDS_P2;PMS_P1;PMS_P2;Temp;Humidity;BMP_temperature;BMP_pressure;BME280_temperature;BME280_humidity;BME280_pressure;Samples;Min_cycle;Max_cycle;Signal;HPM_P1;HPM_P2
2022/09/20 00:00:42;;;;;;;1.60;1.50;;;;;;;10.67;79.41;97728.97;5095176;28;20237;-61
2022/09/20 00:03:08;;;;;;;1.58;1.35;;;;;;;10.66;79.96;97709.63;5095452;28;20070;-61
2022/09/20 00:05:35;;;;;;;2.03;1.65;;;;;;;10.65;80.04;97734.56;5094828;28;20043;-61
2022/09/20 00:08:03;;;;;;;1.50;1.40;;;;;;;10.66;79.62;97730.84;5093800;28;20056;-61
2022/09/20 00:10:30;;;;;;;3.97;1.45;;;;;;;10.71;80.27;97732.66;5093377;28;20404;-60
2022/09/20 00:12:56;;;;;;;6.85;1.55;;;;;;;10.73;79.78;97738.47;5093464;28;20416;-60
2022/09/20 00:15:22;;;;;;;3.03;1.55;;;;;;;10.74;79.61;97736.63;5094947;28;20056;-62
2022/09/20 00:17:47;;;;;;;1.50;1.30;;;;;;;10.72;79.92;97736.09;5094720;28;20252;-61
2022/09/20 00:20:13;;;;;;;3.47;1.60;;;;;;;10.71;79.58;97743.25;5093265;28;20040;-60
2022/09/20 00:22:38;;;;;;;1.25;1.15;;;;;;;10.75;79.97;97756.75;5093273;28;20424;-60
2022/09/20 00:25:05;;;;;;;1.48;1.30;;;;;;;10.74;80.05;97761.25;5076722;28;20470;-60
2022/09/20 00:27:31;;;;;;;1.50;1.40;;;;;;;10.78;79.62;97767.56;5094722;28;20040;-60
2022/09/20 00:29:58;;;;;;;2.45;1.33;;;;;;;10.74;79.70;97768.41;5094345;28;20146;-59
2022/09/20 00:32:23;;;;;;;1.50;1.40;;;;;;;10.67;79.76;97774.03;5094309;28;20119;-60
2022/09/20 00:35:07;;;;;;;2.78;1.40;;;;;;;10.66;80.12;97780.41;5093092;28;20043;-60
2022/09/20 00:37:33;;;;;;;1.98;1.40;;;;;;;10.68;79.50;97767.66;5094308;28;20097;-61
2022/09/20 00:40:00;;;;;;;1.63;1.50;;;;;;;10.71;79.26;97782.19;5094279;28;20085;-61
2022/09/20 00:42:29;;;;;;;1.60;1.50;;;;;;;10.68;79.41;97789.66;5092864;28;20131;-61
2022/09/20 00:45:00;;;;;;;1.45;1.35;;;;;;;10.71;80.16;97787.50;5059975;28;20105;-61
2022/09/20 00:47:39;;;;;;;3.08;1.30;;;;;;;10.71;80.18;97792.78;5094159;28;20485;-61
2022/09/20 00:50:11;;;;;;;2.08;1.50;;;;;;;10.67;79.88;97803.16;5093100;28;20113;-60
2022/09/20 00:52:37;;;;;;;1.40;1.30;;;;;;;10.67;79.80;97805.81;5094043;28;20481;-61
2022/09/20 00:55:06;;;;;;;1.35;1.25;;;;;;;10.68;79.71;97815.38;5093058;28;20134;-61
2022/09/20 00:57:34;;;;;;;3.05;1.40;;;;;;;10.72;79.24;97815.59;5075042;28;20469;-60
2022/09/20 01:00:02;;;;;;;1.38;1.15;;;;;;;10.70;79.36;97837.06;5094024;28;20071;-61
2022/09/20 01:02:30;;;;;;;2.95;1.25;;;;;;;10.68;79.49;97820.66;5092739;28;20048;-61
2022/09/20 01:04:56;;;;;;;1.63;1.30;;;;;;;10.70;79.25;97839.72;5094273;28;20040;-60
2022/09/20 01:07:22;;;;;;;1.52;1.40;;;;;;;10.76;79.24;97832.53;5092423;28;20412;-62
2022/09/20 01:09:48;;;;;;;1.90;1.30;;;;;;;10.79;80.26;97837.28;5092608;28;20063;-61
2022/09/20 01:12:18;;;;;;;1.48;1.38;;;;;;;10.81;80.38;97833.28;5093456;28;20047;-60
2022/09/20 01:14:45;;;;;;;1.42;1.33;;;;;;;10.77;80.61;97836.78;5092250;28;20044;-61
2022/09/20 01:17:11;;;;;;;1.75;1.17;;;;;;;10.74;80.50;97832.81;5093733;28;20542;-61
2022/09/20 01:20:05;;;;;;;1.80;1.48;;;;;;;10.67;81.11;97841.06;5092667;28;20047;-61
2022/09/20 01:22:40;;;;;;;3.05;1.58;;;;;;;10.66;80.50;97844.78;5092050;28;20068;-61
2022/09/20 01:25:30;;;;;;;3.90;1.35;;;;;;;10.68;80.70;97847.16;5092084;28;20048;-60
2022/09/20 01:27:56;;;;;;;1.85;1.20;;;;;;;10.71;80.47;97853.75;5093299;28;20048;-60
2022/09/20 01:30:31;;;;;;;2.53;1.25;;;;;;;10.69;81.04;97852.19;5058561;28;20056;-61
2022/09/20 01:33:26;;;;;;;1.33;1.23;;;;;;;10.73;80.45;97848.97;5093537;28;20044;-60
2022/09/20 01:35:53;;;;;;;1.42;1.30;;;;;;;10.76;80.16;97859.03;5091995;28;20409;-61
2022/09/20 01:38:53;;;;;;;1.95;1.30;;;;;;;10.76;80.00;97865.13;5092168;28;20134;-60
2022/09/20 01:41:40;;;;;;;1.38;1.27;;;;;;;10.76;79.46;97862.47;5092894;28;20425;-61
2022/09/20 01:44:13;;;;;;;2.00;1.33;;;;;;;10.76;78.91;97862.47;5093290;28;20040;-60
2022/09/20 01:46:41;;;;;;;1.85;1.50;;;;;;;10.80;79.48;97862.72;5092009;28;20056;-61
2022/09/20 01:49:19;;;;;;;2.85;1.50;;;;;;;10.78;78.88;97868.28;5093183;28;20047;-60
2022/09/20 01:52:16;;;;;;;1.15;1.13;;;;;;;10.77;79.32;97882.63;5093289;28;20052;-60
2022/09/20 01:55:21;;;;;;;1.40;1.30;;;;;;;10.77;79.05;97887.91;5091951;28;20036;-61
2022/09/20 01:58:04;;;;;;;1.33;1.23;;;;;;;10.76;78.63;97888.97;5076855;28;20508;-61
2022/09/20 02:00:37;;;;;;;1.33;1.23;;;;;;;10.73;78.96;97878.13;5092893;28;20040;-60
2022/09/20 02:03:11;;;;;;;1.83;1.50;;;;;;;10.76;79.26;97882.88;5091372;28;20052;-61
2022/09/20 02:06:07;;;;;;;1.40;1.30;;;;;;;10.75;79.52;97889.25;5092989;28;20048;-61
2022/09/20 02:09:06;;;;;;;2.40;1.38;;;;;;;10.68;79.66;97897.53;5073406;28;20056;-61
2022/09/20 02:11:58;;;;;;;2.05;1.33;;;;;;;10.71;79.83;97898.81;5092722;28;20048;-61
2022/09/20 02:14:49;;;;;;;1.48;1.38;;;;;;;10.72;79.31;97908.34;5091240;28;20527;-61
2022/09/20 02:17:22;;;;;;;1.52;1.30;;;;;;;10.69;78.92;97901.75;5092419;28;20040;-61
2022/09/20 02:20:10;;;;;;;1.80;1.40;;;;;;;10.63;79.48;97914.22;5074138;28;20058;-60
2022/09/20 02:22:48;;;;;;;1.90;1.40;;;;;;;10.63;79.71;97911.56;5092191;28;20122;-60
2022/09/20 02:25:32;;;;;;;2.22;1.55;;;;;;;10.66;79.63;97916.31;5092564;28;20051;-60
2022/09/20 02:28:12;;;;;;;1.60;1.48;;;;;;;10.66;80.03;97920.84;5092266;28;20153;-60
2022/09/20 02:30:59;;;;;;;1.40;1.30;;;;;;;10.66;79.20;97929.56;5090864;28;20131;-62
2022/09/20 02:33:37;;;;;;;1.95;1.30;;;;;;;10.67;79.79;97931.16;5092264;28;20044;-62
2022/09/20 02:36:11;;;;;;;1.90;1.58;;;;;;;10.65;79.40;97937.81;5090827;28;20131;-60
2022/09/20 02:38:43;;;;;;;1.48;1.38;;;;;;;10.62;79.80;97949.75;5090792;28;20044;-61
2022/09/20 02:41:08;;;;;;;3.92;1.52;;;;;;;10.66;79.48;97942.81;5092241;28;20048;-61
2022/09/20 02:43:46;;;;;;;2.35;1.30;;;;;;;10.68;79.72;97951.31;5091889;28;20052;-61
2022/09/20 02:46:34;;;;;;;3.28;1.50;;;;;;;10.66;79.42;97957.94;5091835;28;20051;-61
2022/09/20 02:50:01;;;;;;;2.03;1.40;;;;;;;10.67;79.35;97965.59;5091492;28;20485;-61
2022/09/20 02:52:55;;;;;;;1.45;1.35;;;;;;;10.69;78.81;97966.13;5041312;28;20049;-60
2022/09/20 02:55:27;;;;;;;1.90;1.25;;;;;;;10.75;78.33;97977.50;5090136;28;20048;-62
2022/09/20 02:58:05;;;;;;;2.10;1.35;;;;;;;10.76;77.92;97983.59;5073229;28;20047;-61
2022/09/20 03:00:53;;;;;;;1.58;1.30;;;;;;;10.78;77.79;97976.97;5091500;28;20040;-60
2022/09/20 03:03:33;;;;;;;1.20;1.10;;;;;;;10.80;77.25;97989.94;5090349;28;20044;-61
2022/09/20 03:06:06;;;;;;;2.55;1.67;;;;;;;10.78;77.48;97998.16;5073573;28;20055;-61
2022/09/20 03:08:42;;;;;;;2.35;1.50;;;;;;;10.81;77.55;98002.13;5091911;28;20447;-60
2022/09/20 03:11:26;;;;;;;1.70;1.20;;;;;;;10.79;76.57;98009.56;5090545;28;20048;-60
2022/09/20 03:14:23;;;;;;;1.55;1.20;;;;;;;10.78;76.83;98013.28;5090695;28;20044;-61
2022/09/20 03:17:10;;;;;;;2.22;1.17;;;;;;;10.80;76.45;98016.47;5090245;28;20071;-61
2022/09/20 03:19:47;;;;;;;1.42;1.27;;;;;;;10.81;76.22;98026.00;5091301;28;20044;-61
2022/09/20 03:22:35;;;;;;;3.35;1.30;;;;;;;10.80;76.18;98033.16;5090153;28;20058;-60
2022/09/20 03:25:22;;;;;;;1.50;1.40;;;;;;;10.84;76.35;98039.47;5090433;28;20101;-60
2022/09/20 03:27:54;;;;;;;1.85;1.30;;;;;;;10.84;75.93;98031.53;5090202;28;20090;-60
2022/09/20 03:30:42;;;;;;;1.65;1.30;;;;;;;10.86;75.72;98039.22;5091462;28;20047;-61
2022/09/20 03:33:35;;;;;;;1.67;1.30;;;;;;;10.85;75.85;98043.75;5091583;28;20490;-61
2022/09/20 03:36:35;;;;;;;2.05;1.30;;;;;;;10.89;76.26;98051.94;5091622;28;20051;-61
2022/09/20 03:39:34;;;;;;;2.05;1.58;;;;;;;10.91;76.17;98063.03;5091281;28;20040;-61
2022/09/20 03:42:22;;;;;;;1.40;1.30;;;;;;;10.91;76.95;98060.38;5091734;28;20382;-61
2022/09/20 03:44:53;;;;;;;3.10;1.40;;;;;;;10.93;76.12;98073.38;5090360;28;20123;-61
2022/09/20 03:47:37;;;;;;;2.38;1.55;;;;;;;10.93;76.20;98076.81;5091246;28;20051;-61
2022/09/20 03:50:32;;;;;;;2.45;1.55;;;;;;;10.95;76.32;98079.22;5091481;28;20036;-61
2022/09/20 03:53:20;;;;;;;1.42;1.27;;;;;;;10.97;75.86;98082.38;5091440;28;20513;-61
2022/09/20 03:56:16;;;;;;;1.55;1.30;;;;;;;10.98;76.08;98084.78;5073533;28;20108;-61
2022/09/20 03:58:57;;;;;;;1.50;1.40;;;;;;;10.95;76.37;98089.81;5088503;28;20424;-60
2022/09/20 04:01:31;;;;;;;1.92;1.45;;;;;;;10.95;75.78;98092.47;5091352;28;20052;-61
2022/09/20 04:04:31;;;;;;;1.40;1.30;;;;;;;10.95;75.71;98108.38;5073485;28;20046;-61
2022/09/20 04:07:09;;;;;;;2.17;1.60;;;;;;;10.97;76.12;98098.28;5091521;28;20056;-61
2022/09/20 04:09:50;;;;;;;2.22;1.40;;;;;;;11.03;75.76;98105.97;5091058;28;20501;-61
2022/09/20 04:12:32;;;;;;;1.40;1.30;;;;;;;11.08;75.73;98115.75;5073262;28;20139;-63
2022/09/20 04:15:04;;;;;;;2.08;1.67;;;;;;;11.10;75.92;98122.38;5090062;28;20123;-60
2022/09/20 04:17:56;;;;;;;3.13;1.50;;;;;;;11.13;76.01;98126.34;5091070;28;20523;-61
2022/09/20 04:20:38;;;;;;;4.40;1.60;;;;;;;11.17;76.30;98137.97;5089887;28;20040;-61
2022/09/20 04:23:26;;;;;;;1.58;1.23;;;;;;;11.11;76.64;98139.06;5090152;28;20040;-61
2022/09/20 04:25:52;;;;;;;4.03;1.90;;;;;;;11.08;76.89;98144.91;5091134;28;20075;-60
2022/09/20 04:28:25;;;;;;;2.35;1.73;;;;;;;11.07;77.94;98149.44;5091198;28;20497;-60
2022/09/20 04:30:55;;;;;;;1.90;1.75;;;;;;;11.06;77.60;98157.66;5088838;28;20493;-60
2022/09/20 04:33:23;;;;;;;;;;;;;;;11.06;77.72;98165.59;5076785;28;20050;-60
2022/09/20 04:38:39;;;;;;;2.35;1.77;;;;;;;11.12;77.77;98181.25;5074109;28;20448;-61
2022/09/20 04:41:28;;;;;;;1.80;1.70;;;;;;;11.18;77.20;98182.03;5074445;28;20048;-60
2022/09/20 04:44:07;;;;;;;3.05;1.45;;;;;;;11.25;76.92;98181.72;5056090;28;20413;-60
2022/09/20 04:47:00;;;;;;;2.00;1.80;;;;;;;11.28;76.92;98181.97;5073801;28;20049;-60
2022/09/20 04:49:57;;;;;;;1.50;1.40;;;;;;;11.30;76.73;98192.34;5072519;28;20032;-59
2022/09/20 04:52:37;;;;;;;3.80;2.00;;;;;;;11.28;76.93;98195.25;5073501;28;20568;-59
2022/09/20 04:55:18;;;;;;;2.22;1.60;;;;;;;11.32;76.90;98201.63;5081147;28;20039;-60
2022/09/20 04:58:09;;;;;;;2.72;1.83;;;;;;;11.33;76.80;98207.72;5064454;28;20391;-61
2022/09/20 05:01:02;;;;;;;1.60;1.50;;;;;;;11.36;76.47;98210.59;5088421;28;20480;-60
2022/09/20 05:03:40;;;;;;;3.17;1.70;;;;;;;11.49;75.54;98208.44;5075909;28;20126;-60
2022/09/20 05:06:49;;;;;;;1.60;1.50;;;;;;;11.53;75.56;98210.28;5093878;28;20047;-60
2022/09/20 05:09:42;;;;;;;3.95;1.70;;;;;;;11.45;75.26;98210.06;5093737;28;20521;-59
2022/09/20 05:12:17;;;;;;;2.38;1.98;;;;;;;11.33;75.96;98215.66;5094170;28;20059;-58
2022/09/20 05:14:56;;;;;;;1.90;1.65;;;;;;;11.25;76.32;98210.91;5092471;28;20564;-59
2022/09/20 05:17:51;;;;;;;1.73;1.63;;;;;;;11.21;76.13;98228.44;5092100;28;20087;-61
2022/09/20 05:20:39;;;;;;;3.78;1.98;;;;;;;11.16;76.24;98233.75;5092323;28;20051;-61
2022/09/20 05:23:22;;;;;;;2.20;1.58;;;;;;;11.26;76.30;98239.81;5093456;28;20085;-60
2022/09/20 05:26:11;;;;;;;1.75;1.65;;;;;;;11.52;75.42;98239.72;5092231;28;20122;-60
2022/09/20 05:28:52;;;;;;;1.63;1.40;;;;;;;11.65;74.56;98244.47;5091939;28;20043;-60
2022/09/20 05:31:27;;;;;;;1.85;1.60;;;;;;;11.72;74.47;98250.28;5093583;28;20507;-62
2022/09/20 05:34:06;;;;;;;1.58;1.48;;;;;;;11.74;74.11;98258.78;5093313;28;20492;-60
2022/09/20 05:36:47;;;;;;;3.92;1.80;;;;;;;11.76;74.01;98266.44;5093196;28;20059;-60
2022/09/20 05:39:17;;;;;;;2.65;1.73;;;;;;;11.74;74.31;98264.06;5092102;28;20561;-61
2022/09/20 05:41:51;;;;;;;2.53;1.60;;;;;;;11.79;73.98;98264.06;5093268;28;20082;-62
2022/09/20 05:44:43;;;;;;;1.88;1.55;;;;;;;11.86;73.73;98276.28;5092190;28;20054;-62
2022/09/20 05:47:27;;;;;;;2.03;1.63;;;;;;;12.20;73.14;98273.69;5063747;28;20048;-61
2022/09/20 05:50:09;;;;;;;1.90;1.70;;;;;;;12.56;71.83;98276.94;5075191;28;20051;-61
2022/09/20 05:52:41;;;;;;;1.45;1.35;;;;;;;12.70;70.94;98282.38;5074809;28;20044;-60
2022/09/20 05:55:13;;;;;;;1.75;1.50;;;;;;;12.75;70.48;98285.00;5093019;28;20054;-59
2022/09/20 05:58:03;;;;;;;1.60;1.50;;;;;;;12.85;69.99;98284.94;5091457;28;20048;-61
2022/09/20 06:00:34;;;;;;;1.70;1.60;;;;;;;12.89;69.26;98285.97;5090966;28;20056;-61
2022/09/20 06:03:14;;;;;;;;;;;;;;;12.88;68.85;98295.03;5072319;28;20527;-62
2022/09/20 06:05:53;;;;;;;2.00;1.60;;;;;;;12.90;68.70;98292.06;5071990;28;19946;-60
2022/09/20 06:08:40;;;;;;;2.05;1.40;;;;;;;13.04;68.30;98295.69;5073083;28;20036;-60
2022/09/20 06:11:38;;;;;;;3.38;1.65;;;;;;;13.13;68.14;98295.88;5090468;28;20504;-60
2022/09/20 06:14:03;;;;;;;2.17;1.25;;;;;;;13.36;67.12;98311.09;5073210;28;20047;-62
2022/09/20 06:16:50;;;;;;;1.50;1.40;;;;;;;13.60;66.41;98308.44;5089805;28;20056;-61
2022/09/20 06:19:40;;;;;;;1.85;1.52;;;;;;;13.70;66.05;98306.75;5090020;28;20104;-61
2022/09/20 06:22:16;;;;;;;1.97;1.50;;;;;;;13.61;64.28;98298.59;5089275;28;20486;-62
2022/09/20 06:24:55;;;;;;;2.72;1.50;;;;;;;13.45;64.55;98310.50;5071867;28;20044;-62
2022/09/20 06:27:27;;;;;;;6.82;1.67;;;;;;;13.31;65.53;98313.03;5089379;28;20508;-60
2022/09/20 06:29:57;;;;;;;1.45;1.35;;;;;;;13.16;65.49;98325.34;5089980;28;20062;-61
2022/09/20 06:32:23;;;;;;;1.42;1.23;;;;;;;13.20;65.87;98322.94;5089156;28;20404;-61
2022/09/20 06:34:49;;;;;;;2.60;1.60;;;;;;;13.15;65.73;98326.44;5088335;28;20085;-61
2022/09/20 06:43:32;;;;;;;2.40;1.60;;;;;;;13.05;65.43;98339.81;5090533;28;20043;-61
2022/09/20 06:45:58;;;;;;;2.03;1.60;;;;;;;13.09;65.39;98343.53;5087779;28;20044;-60
2022/09/20 06:48:24;;;;;;;4.07;1.40;;;;;;;13.16;65.35;98351.19;5088878;28;20412;-61
2022/09/20 06:50:51;;;;;;;1.67;1.48;;;;;;;13.13;65.51;98351.75;5091330;28;20088;-61
2022/09/20 06:53:18;;;;;;;2.00;1.35;;;;;;;13.09;65.81;98351.50;5089218;28;20075;-60
2022/09/20 06:55:44;;;;;;;3.38;1.50;;;;;;;13.13;66.29;98351.75;5089587;28;20047;-61
2022/09/20 06:58:10;;;;;;;2.95;1.60;;;;;;;13.14;66.24;98356.75;5090444;28;20408;-61
2022/09/20 07:00:38;;;;;;;2.65;1.60;;;;;;;13.16;65.94;98357.28;5072979;28;20055;-60
2022/09/20 07:03:04;;;;;;;1.50;1.30;;;;;;;13.22;66.18;98373.22;5089574;28;20122;-61
2022/09/20 07:05:30;;;;;;;3.38;1.40;;;;;;;13.25;66.00;98367.34;5072181;28;20047;-61
2022/09/20 07:08:00;;;;;;;1.40;1.30;;;;;;;13.27;66.16;98375.88;5089500;28;20097;-61
2022/09/20 07:10:27;;;;;;;3.42;1.65;;;;;;;13.33;66.02;98378.22;5089608;28;20052;-60
2022/09/20 07:13:00;;;;;;;1.45;1.30;;;;;;;13.44;65.77;98375.44;5091049;28;20079;-61
2022/09/20 07:15:32;;;;;;;1.60;1.30;;;;;;;13.49;65.53;98375.41;5091336;28;20036;-62
2022/09/20 07:18:01;;;;;;;3.22;1.45;;;;;;;13.51;65.19;98395.34;5090355;28;20124;-62
2022/09/20 07:20:26;;;;;;;2.97;1.58;;;;;;;13.59;65.14;98393.97;5089345;28;20497;-61
2022/09/20 07:22:52;;;;;;;2.15;1.30;;;;;;;13.56;65.44;98394.50;5089698;28;20127;-61
2022/09/20 07:25:19;;;;;;;2.45;1.42;;;;;;;13.59;65.57;98396.63;5089293;28;20043;-61
2022/09/20 07:27:45;;;;;;;3.25;1.50;;;;;;;13.57;65.48;98399.53;5070817;28;20035;-61
2022/09/20 07:30:13;;;;;;;1.58;1.48;;;;;;;13.57;65.76;98401.41;5067369;28;20484;-61
2022/09/20 07:32:39;;;;;;;1.70;1.50;;;;;;;13.55;65.56;98401.69;5080628;28;20129;-60
2022/09/20 07:35:09;;;;;;;2.45;1.60;;;;;;;13.63;65.75;98397.63;5085994;28;20032;-60
2022/09/20 07:37:36;;;;;;;1.83;1.67;;;;;;;13.76;65.12;98410.28;5086711;28;20078;-60
2022/09/20 07:40:04;;;;;;;3.35;1.42;;;;;;;13.80;65.25;98407.84;5087718;28;20040;-60
2022/09/20 07:42:30;;;;;;;2.83;1.50;;;;;;;13.81;65.55;98402.22;5087360;28;20404;-62
2022/09/20 07:44:56;;;;;;;1.98;1.55;;;;;;;13.86;64.40;98415.50;5087827;28;20032;-62
2022/09/20 07:47:24;;;;;;;1.88;1.40;;;;;;;13.95;64.43;98418.34;5088958;28;20085;-61
2022/09/20 07:49:50;;;;;;;3.33;1.60;;;;;;;13.99;64.06;98421.25;5088844;28;20055;-59
2022/09/20 07:52:16;;;;;;;1.95;1.55;;;;;;;14.05;64.18;98426.22;5088578;28;20117;-60
2022/09/20 07:54:42;;;;;;;1.85;1.50;;;;;;;14.13;63.63;98421.34;5089054;28;20085;-60
2022/09/20 07:57:08;;;;;;;5.57;1.90;;;;;;;14.23;63.71;98423.91;5088101;28;20052;-60
2022/09/20 07:59:34;;;;;;;1.85;1.67;;;;;;;14.45;63.27;98421.50;5088271;28;20127;-59
2022/09/20 08:01:59;;;;;;;3.85;1.80;;;;;;;14.61;62.55;98424.00;5088412;28;20482;-60
2022/09/20 08:04:25;;;;;;;4.78;1.70;;;;;;;14.72;62.35;98431.56;5088830;28;20036;-61
2022/09/20 08:06:51;;;;;;;3.67;1.70;;;;;;;14.72;61.86;98436.91;5089024;28;20123;-61
2022/09/20 08:09:18;;;;;;;4.00;1.88;;;;;;;14.67;62.36;98438.84;5093439;28;20046;-60
2022/09/20 08:11:45;;;;;;;2.88;1.60;;;;;;;14.62;62.84;98429.06;5091558;28;20040;-60
2022/09/20 08:14:15;;;;;;;6.70;2.00;;;;;;;14.60;62.60;98436.53;5092006;28;20189;-60
2022/09/20 08:16:46;;;;;;;2.28;1.60;;;;;;;14.54;62.17;98437.69;5093435;28;20424;-60
2022/09/20 08:19:19;;;;;;;2.17;1.60;;;;;;;14.47;61.48;98434.53;5093369;28;20463;-61
2022/09/20 08:21:46;;;;;;;1.83;1.63;;;;;;;14.52;61.53;98448.63;5092198;28;20500;-61
2022/09/20 08:24:12;;;;;;;2.70;1.60;;;;;;;14.88;60.46;98445.50;5093493;28;20035;-61
2022/09/20 08:26:38;;;;;;;1.95;1.60;;;;;;;15.10;60.41;98457.47;5091548;28;20064;-61
2022/09/20 08:29:04;;;;;;;3.53;1.50;;;;;;;15.36;59.55;98453.34;5092273;28;20106;-62
2022/09/20 08:31:33;;;;;;;1.92;1.67;;;;;;;15.53;58.89;98455.47;5093140;28;20040;-61
2022/09/20 08:34:02;;;;;;;2.03;1.67;;;;;;;15.54;58.36;98451.72;5094434;28;20579;-61
2022/09/20 08:36:30;;;;;;;2.95;1.42;;;;;;;15.41;58.79;98447.09;5091661;28;20047;-61
2022/09/20 08:38:56;;;;;;;2.97;1.45;;;;;;;15.40;59.01;98456.22;5091847;28;20062;-61
2022/09/20 08:41:57;;;;;;;1.38;1.27;;;;;;;15.35;57.91;98464.28;5092282;28;20135;-62
2022/09/20 08:44:32;;;;;;;2.53;1.52;;;;;;;15.14;57.63;98456.59;5094537;28;20104;-61
2022/09/20 08:47:04;;;;;;;2.65;1.50;;;;;;;15.07;57.85;98458.06;5090972;28;20047;-62
2022/09/20 08:49:31;;;;;;;1.90;1.38;;;;;;;14.98;58.29;98463.25;5090729;28;20131;-62
2022/09/20 08:51:58;;;;;;;2.08;1.40;;;;;;;14.94;58.33;98462.22;5089757;28;20108;-62
2022/09/20 08:54:25;;;;;;;1.58;1.40;;;;;;;15.08;58.35;98471.09;5090050;28;20085;-64
2022/09/20 08:56:51;;;;;;;1.30;1.27;;;;;;;15.20;57.50;98462.66;5090100;28;20113;-61
2022/09/20 08:59:19;;;;;;;1.40;1.30;;;;;;;15.32;56.27;98463.00;5075640;28;20032;-61
2022/09/20 09:01:47;;;;;;;2.25;1.40;;;;;;;15.50;55.75;98464.06;5056770;28;20433;-63
2022/09/20 09:04:13;;;;;;;2.10;1.33;;;;;;;15.69;55.62;98471.28;5089170;28;20040;-63
2022/09/20 09:06:39;;;;;;;4.80;1.40;;;;;;;15.67;55.27;98471.53;5080631;28;20056;-62
2022/09/20 09:09:05;;;;;;;3.22;1.58;;;;;;;15.71;55.41;98477.13;5092333;28;20416;-62
2022/09/20 09:11:32;;;;;;;2.67;1.30;;;;;;;15.77;55.78;98481.28;5091477;28;20266;-63
2022/09/20 09:14:47;;;;;;;4.05;1.60;;;;;;;15.94;55.13;98459.34;5089616;28;20047;-62
2022/09/20 09:16:55;;;;;;;1.77;1.30;;;;;;;16.17;54.68;98473.63;5089353;28;20304;-62
2022/09/20 09:19:28;;;;;;;2.80;1.35;;;;;;;16.30;53.72;98472.84;5090793;28;20040;-60
2022/09/20 09:22:02;;;;;;;2.88;1.40;;;;;;;16.27;53.82;98468.09;5089583;28;20047;-62
2022/09/20 09:24:30;;;;;;;2.20;1.35;;;;;;;16.20;53.92;98475.69;5088959;28;20040;-61
2022/09/20 09:27:13;;;;;;;1.92;1.30;;;;;;;16.16;53.57;98485.41;5070646;28;20048;-61
2022/09/20 09:29:50;;;;;;;1.65;1.38;;;;;;;16.26;53.32;98485.22;5089817;28;20044;-61
2022/09/20 09:32:29;;;;;;;2.75;1.80;;;;;;;16.27;53.61;98492.16;5089848;28;20412;-61
2022/09/20 09:35:24;;;;;;;2.05;1.63;;;;;;;16.23;53.18;98486.59;5092623;28;20478;-61
2022/09/20 09:37:55;;;;;;;1.77;1.67;;;;;;;16.16;53.19;98494.22;5074820;28;20055;-62
2022/09/20 09:40:22;;;;;;;2.33;1.65;;;;;;;16.09;53.04;98491.16;5088372;28;20044;-62
2022/09/20 09:42:55;;;;;;;3.58;1.80;;;;;;;16.07;53.27;98488.75;5091848;28;20043;-60
2022/09/20 09:45:34;;;;;;;1.92;1.38;;;;;;;16.01;52.21;98499.84;5092329;28;20116;-60
2022/09/20 09:48:01;;;;;;;2.75;1.50;;;;;;;15.92;52.64;98498.94;5088219;28;20028;-61
2022/09/20 09:50:31;;;;;;;2.92;1.50;;;;;;;15.95;52.76;98503.69;5092709;28;20088;-61
2022/09/20 09:53:14;;;;;;;1.70;1.35;;;;;;;15.95;52.78;98507.16;5091609;28;20032;-58
2022/09/20 09:55:59;;;;;;;2.53;1.60;;;;;;;15.86;52.31;98515.06;5055207;28;20525;-61
2022/09/20 09:58:34;;;;;;;1.98;1.48;;;;;;;15.78;53.15;98514.94;5074699;28;20039;-61
2022/09/20 10:01:01;;;;;;;1.55;1.45;;;;;;;15.81;52.83;98523.16;5090954;28;20096;-61
2022/09/20 10:03:51;;;;;;;2.30;1.73;;;;;;;15.87;52.96;98538.00;5073614;28;20044;-62
2022/09/20 10:06:27;;;;;;;2.27;1.40;;;;;;;15.85;53.29;98534.84;5081469;28;20048;-60
2022/09/20 10:09:08;;;;;;;3.08;1.48;;;;;;;15.83;53.28;98542.38;5090123;28;20294;-60
2022/09/20 10:11:57;;;;;;;1.60;1.42;;;;;;;15.74;54.08;98536.09;5092794;28;20393;-61
2022/09/20 10:14:37;;;;;;;1.50;1.40;;;;;;;15.71;54.73;98541.25;5092467;28;20473;-61
2022/09/20 10:17:13;;;;;;;1.60;1.50;;;;;;;15.67;55.45;98543.66;5090859;28;20044;-61
2022/09/20 10:20:02;;;;;;;2.13;1.50;;;;;;;15.67;55.52;98552.47;5081211;28;20043;-61
2022/09/20 10:22:43;;;;;;;2.43;1.50;;;;;;;15.67;55.34;98547.16;5088498;28;20070;-62
2022/09/20 10:25:34;;;;;;;1.50;1.40;;;;;;;15.77;55.38;98551.56;5073997;28;20051;-62
2022/09/20 10:28:47;;;;;;;1.95;1.48;;;;;;;15.67;55.71;98557.81;5073709;28;20221;-62
2022/09/20 10:31:50;;;;;;;1.52;1.42;;;;;;;15.60;55.68;98560.06;5070705;28;20053;-62
2022/09/20 10:34:40;;;;;;;1.85;1.67;;;;;;;15.53;56.15;98558.81;5074013;28;20040;-61
2022/09/20 10:37:35;;;;;;;1.70;1.60;;;;;;;15.55;55.94;98560.13;5091445;28;20139;-62
2022/09/20 10:40:15;;;;;;;2.85;1.52;;;;;;;15.52;56.56;98562.59;5067730;28;20091;-61
2022/09/20 10:45:53;;;;;;;2.38;1.73;;;;;;;15.54;57.06;98568.44;5086251;28;20052;-61
2022/09/20 10:48:32;;;;;;;2.45;1.92;;;;;;;15.62;56.80;98571.25;5064442;28;20639;-62
2022/09/20 10:51:07;;;;;;;3.50;1.70;;;;;;;15.64;56.98;98581.63;5088156;28;20052;-62
2022/09/20 10:53:39;;;;;;;2.50;1.55;;;;;;;15.64;57.76;98578.97;5106584;28;20043;-62
2022/09/20 10:56:27;;;;;;;2.63;1.80;;;;;;;15.74;57.82;98572.72;5102661;28;20040;-62
2022/09/20 10:59:07;;;;;;;3.20;1.60;;;;;;;15.77;57.18;98574.81;5086649;28;20040;-62
2022/09/20 11:01:38;;;;;;;2.35;1.95;;;;;;;15.69;57.28;98578.13;5088318;28;20083;-60
2022/09/20 11:04:42;;;;;;;6.03;1.58;;;;;;;15.67;58.03;98583.72;5090395;28;20036;-60
2022/09/20 11:07:18;;;;;;;2.10;1.60;;;;;;;15.71;58.34;98584.78;5090344;28;20407;-61
2022/09/20 11:09:50;;;;;;;4.45;2.20;;;;;;;15.72;58.07;98591.69;5072396;28;20038;-60
2022/09/20 11:12:37;;;;;;;4.68;1.65;;;;;;;15.69;58.21;98594.16;5088676;28;20052;-61
2022/09/20 11:15:11;;;;;;;6.60;1.75;;;;;;;15.64;58.02;98603.00;5088922;28;20044;-62
2022/09/20 11:17:44;;;;;;;5.28;1.70;;;;;;;15.58;57.79;98606.84;5087466;28;20055;-62
2022/09/20 11:21:06;;;;;;;2.72;1.70;;;;;;;15.63;58.24;98610.22;5085245;28;20094;-61
2022/09/20 11:23:49;;;;;;;2.10;1.50;;;;;;;15.48;58.02;98620.34;5024212;28;20139;-61
2022/09/20 11:26:30;;;;;;;5.10;1.88;;;;;;;15.43;58.18;98624.66;5062135;28;20047;-61
2022/09/20 11:29:18;;;;;;;2.15;1.60;;;;;;;15.33;58.25;98629.34;5087115;28;20044;-61
2022/09/20 11:31:45;;;;;;;2.10;1.40;;;;;;;15.37;58.11;98633.03;5088955;28;20047;-61
2022/09/20 11:34:17;;;;;;;3.58;1.60;;;;;;;15.34;58.37;98638.94;5087297;28;20413;-61
2022/09/20 11:36:52;;;;;;;2.22;1.60;;;;;;;15.24;58.44;98647.88;5088459;28;20162;-62
2022/09/20 11:39:24;;;;;;;1.85;1.50;;;;;;;15.19;59.16;98648.72;5089478;28;20561;-63
2022/09/20 11:41:53;;;;;;;3.30;1.92;;;;;;;15.06;59.31;98645.94;5074744;28;20048;-62
2022/09/20 11:44:19;;;;;;;7.70;2.30;;;;;;;15.02;60.29;98642.25;5071551;28;20040;-62
2022/09/20 11:46:51;;;;;;;4.97;2.13;;;;;;;14.87;61.18;98651.22;5072624;28;20421;-61
2022/09/20 11:49:20;;;;;;;5.40;2.03;;;;;;;14.80;62.01;98654.25;5085764;28;20047;-62
2022/09/20 11:51:58;;;;;;;4.50;2.15;;;;;;;14.82;63.02;98662.75;5093261;28;20040;-61
2022/09/20 11:54:36;;;;;;;7.10;1.80;;;;;;;14.84;63.60;98675.81;5074469;28;20093;-61
2022/09/20 11:57:06;;;;;;;2.60;1.75;;;;;;;14.90;63.51;98680.03;5092870;28;20032;-62
2022/09/20 11:59:36;;;;;;;1.67;1.48;;;;;;;14.95;63.50;98675.44;5074267;28;20390;-62
2022/09/20 12:02:11;;;;;;;2.08;1.65;;;;;;;14.81;64.44;98679.06;5093286;28;20409;-61
2022/09/20 12:04:36;;;;;;;3.15;2.00;;;;;;;14.88;65.22;98679.50;5073773;28;20109;-61
2022/09/20 12:07:06;;;;;;;4.43;1.80;;;;;;;14.92;66.00;98685.88;5093995;28;20040;-62
2022/09/20 12:09:40;;;;;;;2.45;1.73;;;;;;;14.98;65.06;98682.06;5089456;28;20032;-62
2022/09/20 12:12:15;;;;;;;2.15;1.60;;;;;;;14.98;65.28;98684.75;5089648;28;20040;-63
2022/09/20 12:14:52;;;;;;;3.35;2.10;;;;;;;14.91;65.39;98684.28;5089763;28;20040;-62
2022/09/20 12:17:46;;;;;;;2.83;1.65;;;;;;;14.95;65.22;98682.66;5088606;28;20078;-62
2022/09/20 12:20:31;;;;;;;2.75;1.80;;;;;;;15.09;64.89;98688.09;5090160;28;20044;-63
2022/09/20 12:23:34;;;;;;;3.38;1.98;;;;;;;15.13;64.83;98687.25;5092614;28;20062;-62
2022/09/20 12:26:09;;;;;;;2.92;1.90;;;;;;;15.17;65.14;98688.25;5088553;28;20047;-62
2022/09/20 12:28:40;;;;;;;2.33;1.80;;;;;;;15.20;64.85;98679.69;5091803;28;20138;-62
2022/09/20 12:34:01;;;;;;;2.88;2.10;;;;;;;15.40;64.04;98693.88;5092670;28;20620;-62